Island Park, ID (83429)

3:06 AM MST on December 10, 2016 (GMT -0700)
Centennial Shores | | Change Station
Active Advisory: Winter Storm Warning

Elev 6295 ft 44.44 °N, 111.46 °W | Updated 8 seconds ago

Snow
Snow
24.1 °F
Feels Like 24 °F
N
0.0
Wind Variable Wind from South
Gusts 0.0 mph

Today
High -- | Low -- °F
--% Chance of Precip.
Yesterday
High -- | Low -- °F
Precip. -- in
Pressure 29.85 in
Visibility 5.0 miles
Clouds Mostly Cloudy 2200 ft
Windchill 24 °F
Dew Point 18 °F
Humidity 23%
Rainfall Not available.
Snow Depth Not available.
7:51 AM 4:45 PM
Waxing Gibbous, 82% visible
METAR KWYS 100950Z AUTO 23005KT 5SM -SN BKN022 M03/M04 A2985 RMK AO2 P0001
Pressure 29.85 in
Visibility 5.0 miles
Clouds Mostly Cloudy 2200 ft
Windchill 24 °F
Dew Point 18 °F
Humidity 23%
Rainfall Not available.
Snow Depth Not available.
7:51 AM 4:45 PM
Waxing Gibbous, 82% visible
METAR KWYS 100950Z AUTO 23005KT 5SM -SN BKN022 M03/M04 A2985 RMK AO2 P0001

10-Day Weather Forecast

Almanac

Astronomy

Dec. 10, 2016 Rise Set
Actual Time
Civil Twilight
Nautical Twilight
Astronomical Twilight
Moon
Length of Visible Light
Length of Day
Tomorrow will be .
, % of the Moon is Illuminated

Today's Extremes

State Highs State Lows

Community

WunderPhotos

Upload Photos

1,956,536 photos uploaded!

WunderBlog® & News

Nearby

Air Quality

  Air Quality AQ Index Pollutant
Not available.

Snow Depth

Station Depth Elevation

Earthquake Activity

City Distance Mag. Time & Date
Minimum magnitude displayed is 2.5.

Coastal Water Temperatures

Place Temperature

Stations

Nearby Weather Stations

Station Location Temp. Windchill Dew Point Humidity Wind Precip. Elev Updated Type
                   

Watches & Warnings

Winter Storm Warning
Issued: 2:11 AM MST Dec. 10, 2016 – National Weather Service

... Winter Storm Warning remains in effect until 5 PM MST this
afternoon...

* impacts... moderate to heavy snowfall will result in slick
roadways and reduced visibility.

* Timing... widespread snow continuing through Saturday.
Occasional breaks in the snow will be possible.

* Snow accumulations... additional 10 to 20 inches through
Saturday above 6000 ft with 4 to 10 inches in the lower
valleys.

* Locations... St. Anthony... Ashton... Island Park... Driggs...
Victor... Henry... Soda Springs... Downey... Lava Hot Springs...
Montpelier

Precautionary/preparedness actions...

A Winter Storm Warning for heavy snow means severe winter weather
conditions are expected or occurring. Significant amounts of snow
are forecast that will make travel dangerous. Only travel in an
emergency. If you must travel... keep an extra flashlight... food
and water in your vehicle in case of an emergency.